METAR Data
IDs: Format: Raw Decoded Include TAF

Data at: 1341 UTC 10 Jul 2020

KCWF 101245Z 22005KT 10SM SCT120 28/26 A3004
KCWF 101147Z 00000KT 10SM SCT120 24/24 A3003
KCWF 101100Z 00000KT 10SM SCT120 24/24 A3001
KCWF 101035Z AUTO 00000KT 7SM CLR 25/24 A3001 RMK AO2 T02460242
KCWF 101015Z AUTO 00000KT 5SM BR CLR 24/24 A2999 RMK AO2 T02440241
KCWF 100955Z AUTO 00000KT 7SM BR CLR 24/24 A2999 RMK AO2 T02440240
KCWF 100935Z AUTO 00000KT 10SM SCT018 25/24 A2999 RMK AO2 T02500243
KCWF 100915Z AUTO 00000KT 10SM CLR 25/25 A2998 RMK AO2 T02520246
KCWF 100855Z AUTO 00000KT 10SM CLR 25/24 A2998 RMK AO2 T02490244
KCWF 100835Z AUTO 16003KT 10SM CLR 25/24 A2998 RMK AO2
KCWF 100815Z AUTO 18004KT 10SM CLR 25/24 A2997 RMK AO2 T02470241
KCWF 100755Z AUTO 19003KT 10SM CLR 25/24 A2997 RMK AO2 T02460239
KCWF 100735Z AUTO 21003KT 10SM CLR 26/25 A2997 RMK AO2 T02610246
KCWF 100715Z AUTO 00000KT 10SM CLR 27/25 A2996 RMK AO2 T02670248
KCWF 100655Z AUTO 21005KT 10SM CLR 27/25 A2996 RMK AO2 T02680248
KCWF 100635Z AUTO 22005KT 10SM CLR 27/25 A2996 RMK AO2 T02690247
KCWF 100615Z AUTO 21005KT 10SM CLR 27/25 A2996 RMK AO2 T02680247
KCWF 100555Z AUTO 22004KT 10SM CLR 27/25 A2997 RMK AO2 T02690246 10314 20267
KCWF 100535Z AUTO 21006KT 10SM CLR 27/25 A2997 RMK AO2 T02680246
KCWF 100515Z AUTO 21005KT 10SM CLR 27/25 A2997 RMK AO2 T02680246
KCWF 100455Z AUTO 20006KT 10SM CLR 27/25 A2996 RMK AO2
KCWF 100435Z AUTO 19005KT 10SM CLR 27/25 A2996 RMK AO2 T02690246
KCWF 100415Z AUTO 20006KT 10SM CLR 27/25 A2995 RMK AO2 T02700246
KCWF 100355Z AUTO 21006KT 10SM CLR 27/25 A2996 RMK AO2 T02740247
KCWF 100335Z AUTO 21007KT 10SM CLR 28/25 A2995 RMK AO2 T02750247
KCWF 100315Z AUTO 20008KT 10SM CLR 27/25 A2994 RMK AO2 T02740247
KCWF 100250Z 20009KT 10SM SKC 28/25 A2993 RMK LAST
KCWF 100150Z 20009KT 10SM SKC 28/25 A2994
KCWF 100050Z 20008KT 10SM FEW020 30/25 A2993
KCWF 092350Z 20012KT 10SM SCT020 31/25 A2993
KCWF 092245Z 19010KT 10SM SCT031 SCT035 32/25 A2993
KCWF 092145Z 19010KT 10SM SCT031 SCT035 33/25 A2994
KCWF 092045Z 20013KT 10SM SCT031 33/25 A2994
KCWF 091950Z 21013G18KT 10SM SCT034 34/25 A2995
KCWF 091850Z 20012KT 10SM SCT034 33/26 A2995
KCWF 091755Z 20007KT 10SM SCT034 33/25 A2995
KCWF 091650Z 21010KT 10SM SCT034 33/25 A2997
KCWF 091555Z 21009KT 10SM SCT028 32/25 A2996
KCWF 091450Z 23008KT 10SM SCT019 SCT037 31/26 A2996
KCWF 091355Z 21007KT 7SM BKN017 BKN024 29/26 A2996
KCWF 091250Z 00000KT 7SM SKC 27/26 A2995
KCWF 091155Z 00000KT 7SM SKC 24/24 A2994
KCWF 091100Z 00000KT 10SM SKC 24/24 A2994
KCWF 091035Z AUTO 00000KT 5SM BR CLR 25/24 A2994 RMK AO2 T02460242
KCWF 091015Z AUTO 00000KT 7SM CLR 25/24 A2993 RMK AO2 T02490241
KCWF 090955Z AUTO 21003KT 10SM CLR 26/25 A2993 RMK AO2 T02620250
KCWF 090935Z AUTO 21003KT 10SM CLR 25/25 A2993 RMK AO2 T02540246
KCWF 090915Z AUTO 20004KT 10SM CLR 26/25 A2992 RMK AO2 T02620250
KCWF 090855Z AUTO 22004KT 10SM CLR 26/25 A2992 RMK AO2 T02630252
KCWF 090835Z AUTO 19004KT 10SM SCT019 SCT026 25/25 A2992 RMK AO2 T02530247
KCWF 090815Z AUTO 19003KT 7SM SCT019 25/25 A2992 RMK AO2 T02500245
KCWF 090755Z AUTO 00000KT 7SM CLR 25/25 A2992 RMK AO2 T02520245
KCWF 090735Z AUTO 19004KT 10SM CLR 27/25 A2992 RMK AO2 T02660251
KCWF 090715Z AUTO 21006KT 10SM CLR 27/25 A2993 RMK AO2 T02680252
KCWF 090655Z AUTO 21005KT 10SM SCT017 27/25 A2993 RMK AO2 T02700253
KCWF 090635Z AUTO 20005KT 10SM BKN017 27/25 A2993 RMK AO2 T02690253
KCWF 090615Z AUTO 23003KT 10SM SCT017 27/25 A2993 RMK AO2 T02720252
KCWF 090555Z AUTO 20005KT 10SM CLR 27/25 A2993 RMK AO2 T02710252 10307 20271
KCWF 090535Z AUTO 21005KT 10SM CLR 27/25 A2993 RMK AO2 T02710251
KCWF 090515Z AUTO 21005KT 10SM CLR 27/25 A2993 RMK AO2 T02720252
KCWF 090455Z AUTO 20006KT 10SM CLR 27/25 A2993 RMK AO2 T02730252
KCWF 090435Z AUTO 20005KT 10SM CLR 27/25 A2994 RMK AO2 T02740252
KCWF 090415Z AUTO 19006KT 10SM CLR 27/25 A2994 RMK AO2 T02730252
KCWF 090355Z AUTO 20006KT 10SM SCT019 27/25 A2994 RMK AO2 T02740251
KCWF 090335Z AUTO 20006KT 10SM CLR 27/25 A2993 RMK AO2 T02740251
KCWF 090315Z AUTO 20007KT 10SM CLR 28/25 A2993 RMK AO2 T02770251
KCWF 090245Z 19007KT 10SM SKC 28/25 A2993 RMK LAST
KCWF 090145Z 19009KT 10SM SCT020 28/25 A2992